sensor_id;sensor_type;location;lat;lon;timestamp;pressure;altitude;pressure_sealevel;temperature;humidity
62980;BME280;49075;53.988;27.678;2023-07-09T00:02:56;989;;;14.9;55.9
62980;BME280;49075;53.988;27.678;2023-07-09T00:07:29;988.9;;;15;55.5
62980;BME280;49075;53.988;27.678;2023-07-09T00:12:26;988.9;;;14.9;56
62980;BME280;49075;53.988;27.678;2023-07-09T00:17:58;988.8;;;14.9;55.9
62980;BME280;49075;53.988;27.678;2023-07-09T00:22:10;988.8;;;14.8;56.6
62980;BME280;49075;53.988;27.678;2023-07-09T00:27:08;988.8;;;14.8;56.3
62980;BME280;49075;53.988;27.678;2023-07-09T00:32:26;988.7;;;14.8;56.9
62980;BME280;49075;53.988;27.678;2023-07-09T00:37:38;988.7;;;14.8;56.3
62980;BME280;49075;53.988;27.678;2023-07-09T00:42:11;988.7;;;14.8;57
62980;BME280;49075;53.988;27.678;2023-07-09T00:47:36;988.7;;;14.8;56.8
62980;BME280;49075;53.988;27.678;2023-07-09T00:52:24;988.8;;;14.8;57.1
62980;BME280;49075;53.988;27.678;2023-07-09T00:57:09;988.8;;;14.9;56.8
62980;BME280;49075;53.988;27.678;2023-07-09T01:02:28;988.8;;;14.9;56.8
62980;BME280;49075;53.988;27.678;2023-07-09T01:07:08;988.8;;;14.9;57.1
62980;BME280;49075;53.988;27.678;2023-07-09T01:12:09;988.8;;;14.9;57.2
62980;BME280;49075;53.988;27.678;2023-07-09T01:17:48;988.8;;;14.9;57.4
62980;BME280;49075;53.988;27.678;2023-07-09T01:22:09;988.7;;;14.8;57.3
62980;BME280;49075;53.988;27.678;2023-07-09T01:27:25;988.7;;;14.8;57.9
62980;BME280;49075;53.988;27.678;2023-07-09T01:32:15;988.8;;;14.7;57.7
62980;BME280;49075;53.988;27.678;2023-07-09T01:37:24;988.8;;;14.7;58
62980;BME280;49075;53.988;27.678;2023-07-09T01:43:07;988.8;;;14.7;57.9
62980;BME280;49075;53.988;27.678;2023-07-09T01:47:08;988.9;;;14.7;58.2
62980;BME280;49075;53.988;27.678;2023-07-09T01:52:08;988.9;;;14.6;58.2
62980;BME280;49075;53.988;27.678;2023-07-09T01:57:23;989;;;14.5;58.6
62980;BME280;49075;53.988;27.678;2023-07-09T02:02:08;989;;;14.5;58.6
62980;BME280;49075;53.988;27.678;2023-07-09T02:07:28;989.1;;;14.5;58.9
62980;BME280;49075;53.988;27.678;2023-07-09T02:12:09;989.1;;;14.5;58.7
62980;BME280;49075;53.988;27.678;2023-07-09T02:17:22;989.1;;;14.4;59.1
62980;BME280;49075;53.988;27.678;2023-07-09T02:22:26;989.1;;;14.2;59.3
62980;BME280;49075;53.988;27.678;2023-07-09T02:27:22;989.1;;;14.1;60.4
62980;BME280;49075;53.988;27.678;2023-07-09T02:32:09;989.2;;;14.1;59.8
62980;BME280;49075;53.988;27.678;2023-07-09T02:37:15;989.2;;;14.2;59.9
62980;BME280;49075;53.988;27.678;2023-07-09T02:42:16;989.2;;;14.3;59.7
62980;BME280;49075;53.988;27.678;2023-07-09T02:47:23;989.2;;;14.3;59.9
62980;BME280;49075;53.988;27.678;2023-07-09T02:52:23;989.2;;;14.4;59.6
62980;BME280;49075;53.988;27.678;2023-07-09T02:57:09;989.2;;;14.4;59.8
62980;BME280;49075;53.988;27.678;2023-07-09T03:02:09;989.3;;;14.6;59.5
62980;BME280;49075;53.988;27.678;2023-07-09T03:07:41;989.3;;;14.7;59.4
62980;BME280;49075;53.988;27.678;2023-07-09T03:12:15;989.2;;;14.8;59.4
62980;BME280;49075;53.988;27.678;2023-07-09T03:17:15;989.2;;;14.9;59.2
62980;BME280;49075;53.988;27.678;2023-07-09T03:22:39;989.2;;;15.1;59.3
62980;BME280;49075;53.988;27.678;2023-07-09T03:27:49;989.2;;;15.3;58.8
62980;BME280;49075;53.988;27.678;2023-07-09T03:32:41;989.2;;;15.5;58.3
62980;BME280;49075;53.988;27.678;2023-07-09T03:37:25;989.3;;;15.7;58.2
62980;BME280;49075;53.988;27.678;2023-07-09T03:42:25;989.3;;;15.9;57.8
62980;BME280;49075;53.988;27.678;2023-07-09T03:47:33;989.3;;;16.1;57.3
62980;BME280;49075;53.988;27.678;2023-07-09T03:52:41;989.2;;;16.4;57
62980;BME280;49075;53.988;27.678;2023-07-09T03:57:37;989.2;;;16.6;56.4
62980;BME280;49075;53.988;27.678;2023-07-09T04:02:27;989.2;;;16.8;56
62980;BME280;49075;53.988;27.678;2023-07-09T04:07:41;989.2;;;17.1;55.5
62980;BME280;49075;53.988;27.678;2023-07-09T04:12:09;989.2;;;17.1;55.4
62980;BME280;49075;53.988;27.678;2023-07-09T04:17:31;989.1;;;17.4;54.9
62980;BME280;49075;53.988;27.678;2023-07-09T04:22:15;989.1;;;17.6;54.4
62980;BME280;49075;53.988;27.678;2023-07-09T04:27:45;989.1;;;17.8;53.8
62980;BME280;49075;53.988;27.678;2023-07-09T04:32:23;989.1;;;18.2;52.6
62980;BME280;49075;53.988;27.678;2023-07-09T04:37:27;989.1;;;18.6;51.5
62980;BME280;49075;53.988;27.678;2023-07-09T04:42:43;989.1;;;18.7;50.8
62980;BME280;49075;53.988;27.678;2023-07-09T04:47:23;989.1;;;18.8;50.7
62980;BME280;49075;53.988;27.678;2023-07-09T04:52:15;989;;;19;49.9
62980;BME280;49075;53.988;27.678;2023-07-09T04:57:09;989;;;19.1;49.8
62980;BME280;49075;53.988;27.678;2023-07-09T05:02:09;989.1;;;19.2;49.4
62980;BME280;49075;53.988;27.678;2023-07-09T05:07:23;989.1;;;19.3;48.8
62980;BME280;49075;53.988;27.678;2023-07-09T05:12:33;989.1;;;19.4;48.4
62980;BME280;49075;53.988;27.678;2023-07-09T05:17:23;989.1;;;19.5;48.2
62980;BME280;49075;53.988;27.678;2023-07-09T05:22:37;989.1;;;20;47.7
62980;BME280;49075;53.988;27.678;2023-07-09T05:27:49;989.1;;;20.4;46.7
62980;BME280;49075;53.988;27.678;2023-07-09T05:32:09;989.1;;;20.6;46.1
62980;BME280;49075;53.988;27.678;2023-07-09T05:37:23;989.1;;;20.7;45.6
62980;BME280;49075;53.988;27.678;2023-07-09T05:42:09;989.1;;;20.6;45
62980;BME280;49075;53.988;27.678;2023-07-09T05:47:09;989.1;;;20.9;44.9
62980;BME280;49075;53.988;27.678;2023-07-09T05:52:23;989.1;;;21;44.4
62980;BME280;49075;53.988;27.678;2023-07-09T05:57:09;989.1;;;21.3;43.5
62980;BME280;49075;53.988;27.678;2023-07-09T06:02:15;989.1;;;21.5;42.6
62980;BME280;49075;53.988;27.678;2023-07-09T06:07:09;989.1;;;21.8;41.6
62980;BME280;49075;53.988;27.678;2023-07-09T06:12:09;989;;;21.5;42.1
62980;BME280;49075;53.988;27.678;2023-07-09T06:17:41;989;;;21.4;42.2
62980;BME280;49075;53.988;27.678;2023-07-09T06:22:23;988.9;;;21.8;41.4
62980;BME280;49075;53.988;27.678;2023-07-09T06:27:45;989;;;22.3;40.3
62980;BME280;49075;53.988;27.678;2023-07-09T06:32:09;989;;;22.7;39.6
62980;BME280;49075;53.988;27.678;2023-07-09T06:37:21;988.9;;;23.1;38.8
62980;BME280;49075;53.988;27.678;2023-07-09T06:42:09;988.9;;;23.8;38.1
62980;BME280;49075;53.988;27.678;2023-07-09T06:47:33;988.9;;;24.7;36
62980;BME280;49075;53.988;27.678;2023-07-09T06:52:41;988.8;;;25.3;35.5
62980;BME280;49075;53.988;27.678;2023-07-09T06:57:23;988.8;;;25.8;34.1
62980;BME280;49075;53.988;27.678;2023-07-09T07:02:15;988.8;;;26.7;33.2
62980;BME280;49075;53.988;27.678;2023-07-09T07:07:09;988.7;;;27.5;31.5
62980;BME280;49075;53.988;27.678;2023-07-09T07:12:09;988.7;;;28;30.8
62980;BME280;49075;53.988;27.678;2023-07-09T07:17:09;988.7;;;28.5;29.7
62980;BME280;49075;53.988;27.678;2023-07-09T07:22:49;988.7;;;29.2;29.1
62980;BME280;49075;53.988;27.678;2023-07-09T07:27:15;988.7;;;29.8;27.7
62980;BME280;49075;53.988;27.678;2023-07-09T07:32:09;988.7;;;30.1;27.6
62980;BME280;49075;53.988;27.678;2023-07-09T07:37:09;988.8;;;30;27
62980;BME280;49075;53.988;27.678;2023-07-09T07:42:29;988.7;;;30.1;27.2
62980;BME280;49075;53.988;27.678;2023-07-09T07:47:23;988.7;;;30.9;26
62980;BME280;49075;53.988;27.678;2023-07-09T07:52:27;988.6;;;31.1;26.2
62980;BME280;49075;53.988;27.678;2023-07-09T07:57:27;988.6;;;31.7;25.1
62980;BME280;49075;53.988;27.678;2023-07-09T08:02:35;988.6;;;31.6;25.1
62980;BME280;49075;53.988;27.678;2023-07-09T08:07:09;988.6;;;31.7;24.6
62980;BME280;49075;53.988;27.678;2023-07-09T08:12:27;988.6;;;32.3;24.3
62980;BME280;49075;53.988;27.678;2023-07-09T08:17:41;988.5;;;32.8;23.4
62980;BME280;49075;53.988;27.678;2023-07-09T08:22:09;988.5;;;32.9;23.6
62980;BME280;49075;53.988;27.678;2023-07-09T08:27:09;988.5;;;32.3;23.2
62980;BME280;49075;53.988;27.678;2023-07-09T08:32:41;988.5;;;31.6;24.2
62980;BME280;49075;53.988;27.678;2023-07-09T08:37:23;988.5;;;32.5;23.5
62980;BME280;49075;53.988;27.678;2023-07-09T08:42:16;988.5;;;32.5;23.1
62980;BME280;49075;53.988;27.678;2023-07-09T08:47:11;988.4;;;32;22.9
62980;BME280;49075;53.988;27.678;2023-07-09T08:52:10;988.4;;;31.3;23.9
62980;BME280;49075;53.988;27.678;2023-07-09T08:57:32;988.3;;;31.6;23.4
62980;BME280;49075;53.988;27.678;2023-07-09T09:02:14;988.3;;;32;23.4
62980;BME280;49075;53.988;27.678;2023-07-09T09:07:33;988.2;;;32.9;22.4
62980;BME280;49075;53.988;27.678;2023-07-09T09:12:11;988.2;;;33.3;22.4
62980;BME280;49075;53.988;27.678;2023-07-09T09:17:16;988.1;;;33.8;21.2
62980;BME280;49075;53.988;27.678;2023-07-09T09:22:16;988.2;;;34.3;21
62980;BME280;49075;53.988;27.678;2023-07-09T09:27:09;988.1;;;34.4;20.3
62980;BME280;49075;53.988;27.678;2023-07-09T09:32:15;988;;;33.6;21
62980;BME280;49075;53.988;27.678;2023-07-09T09:37:28;988;;;33.4;21.1
62980;BME280;49075;53.988;27.678;2023-07-09T09:42:41;988;;;32.6;22.5
62980;BME280;49075;53.988;27.678;2023-07-09T09:47:24;988;;;32.6;22.3
62980;BME280;49075;53.988;27.678;2023-07-09T09:52:16;988;;;32.6;22.3
62980;BME280;49075;53.988;27.678;2023-07-09T09:57:24;987.9;;;32.1;22.5
62980;BME280;49075;53.988;27.678;2023-07-09T10:02:13;988;;;30.8;24
62980;BME280;49075;53.988;27.678;2023-07-09T10:07:43;988;;;30.6;24.2
62980;BME280;49075;53.988;27.678;2023-07-09T10:12:39;988;;;31;23.7
62980;BME280;49075;53.988;27.678;2023-07-09T10:17:31;987.9;;;31.3;22.8
62980;BME280;49075;53.988;27.678;2023-07-09T10:22:10;987.8;;;31.1;23.2
62980;BME280;49075;53.988;27.678;2023-07-09T10:27:10;988;;;30.7;23.6
62980;BME280;49075;53.988;27.678;2023-07-09T10:32:33;987.8;;;31.1;23.1
62980;BME280;49075;53.988;27.678;2023-07-09T10:37:19;987.9;;;30.6;23.4
62980;BME280;49075;53.988;27.678;2023-07-09T10:42:11;987.8;;;30.9;23.5
62980;BME280;49075;53.988;27.678;2023-07-09T10:47:09;987.9;;;30.4;23.7
62980;BME280;49075;53.988;27.678;2023-07-09T10:52:11;987.9;;;29.3;24.5
62980;BME280;49075;53.988;27.678;2023-07-09T10:57:16;987.8;;;29.6;24.3
62980;BME280;49075;53.988;27.678;2023-07-09T11:02:24;987.8;;;29.8;23.7
62980;BME280;49075;53.988;27.678;2023-07-09T11:07:46;987.8;;;29.5;24.3
62980;BME280;49075;53.988;27.678;2023-07-09T11:12:16;987.8;;;28.2;26.2
62980;BME280;49075;53.988;27.678;2023-07-09T11:17:11;987.7;;;27.3;26.7
62980;BME280;49075;53.988;27.678;2023-07-09T11:22:14;987.7;;;27.8;26.2
62980;BME280;49075;53.988;27.678;2023-07-09T11:27:29;987.7;;;27.9;25.9
62980;BME280;49075;53.988;27.678;2023-07-09T11:32:29;987.6;;;27.9;25.9
62980;BME280;49075;53.988;27.678;2023-07-09T11:38:06;987.6;;;27.6;26.4
62980;BME280;49075;53.988;27.678;2023-07-09T11:42:28;987.6;;;27.3;27
62980;BME280;49075;53.988;27.678;2023-07-09T11:47:34;987.5;;;26.7;27.6
62980;BME280;49075;53.988;27.678;2023-07-09T11:52:09;987.5;;;26.4;28.1
62980;BME280;49075;53.988;27.678;2023-07-09T11:57:10;987.5;;;25.8;28.8
62980;BME280;49075;53.988;27.678;2023-07-09T12:02:29;987.5;;;25.7;28.8
62980;BME280;49075;53.988;27.678;2023-07-09T12:07:29;987.4;;;25.6;29.2
62980;BME280;49075;53.988;27.678;2023-07-09T12:12:16;987.4;;;25.2;29.4
62980;BME280;49075;53.988;27.678;2023-07-09T12:17:27;987.3;;;24.9;29.7
62980;BME280;49075;53.988;27.678;2023-07-09T12:22:21;987.2;;;24.7;29.3
62980;BME280;49075;53.988;27.678;2023-07-09T12:27:24;987.3;;;24.4;29.6
62980;BME280;49075;53.988;27.678;2023-07-09T12:32:23;987.2;;;24.2;30.1
62980;BME280;49075;53.988;27.678;2023-07-09T12:37:33;987.1;;;24.4;30
62980;BME280;49075;53.988;27.678;2023-07-09T12:42:14;987;;;24.5;29.9
62980;BME280;49075;53.988;27.678;2023-07-09T12:47:12;987;;;24.2;30.8
62980;BME280;49075;53.988;27.678;2023-07-09T12:52:12;987.1;;;24.1;30.9
62980;BME280;49075;53.988;27.678;2023-07-09T12:57:27;987;;;23.8;30.9
62980;BME280;49075;53.988;27.678;2023-07-09T13:02:13;987;;;23.8;30.7
62980;BME280;49075;53.988;27.678;2023-07-09T13:07:30;987;;;23.8;30.3
62980;BME280;49075;53.988;27.678;2023-07-09T13:12:10;987;;;23.9;30
62980;BME280;49075;53.988;27.678;2023-07-09T13:17:28;986.9;;;23.9;29.6
62980;BME280;49075;53.988;27.678;2023-07-09T13:22:10;987;;;23.8;30.3
62980;BME280;49075;53.988;27.678;2023-07-09T13:27:27;987;;;23.9;30.6
62980;BME280;49075;53.988;27.678;2023-07-09T13:32:09;986.9;;;24.3;30.3
62980;BME280;49075;53.988;27.678;2023-07-09T13:37:23;986.9;;;24.6;30.3
62980;BME280;49075;53.988;27.678;2023-07-09T13:42:49;986.9;;;24.7;30.3
62980;BME280;49075;53.988;27.678;2023-07-09T13:47:11;986.9;;;24.8;29.8
62980;BME280;49075;53.988;27.678;2023-07-09T13:52:12;986.8;;;24.9;29.3
62980;BME280;49075;53.988;27.678;2023-07-09T13:57:27;986.7;;;25;29.2
62980;BME280;49075;53.988;27.678;2023-07-09T14:02:28;986.7;;;25;29.4
62980;BME280;49075;53.988;27.678;2023-07-09T14:07:25;986.7;;;24.9;29.6
62980;BME280;49075;53.988;27.678;2023-07-09T14:12:09;986.8;;;24.9;29.3
62980;BME280;49075;53.988;27.678;2023-07-09T14:17:09;986.7;;;24.7;29.1
62980;BME280;49075;53.988;27.678;2023-07-09T14:22:21;986.7;;;24.7;28.7
62980;BME280;49075;53.988;27.678;2023-07-09T14:27:23;986.7;;;24.5;29.1
62980;BME280;49075;53.988;27.678;2023-07-09T14:32:30;986.8;;;24.4;29.5
62980;BME280;49075;53.988;27.678;2023-07-09T14:37:27;986.8;;;24.1;30.3
62980;BME280;49075;53.988;27.678;2023-07-09T14:42:23;986.8;;;24.1;31.2
62980;BME280;49075;53.988;27.678;2023-07-09T14:47:10;986.8;;;24.1;30.7
62980;BME280;49075;53.988;27.678;2023-07-09T14:52:23;986.8;;;24;29.1
62980;BME280;49075;53.988;27.678;2023-07-09T14:57:13;986.8;;;24;28.2
62980;BME280;49075;53.988;27.678;2023-07-09T15:02:28;986.8;;;24;29.1
62980;BME280;49075;53.988;27.678;2023-07-09T15:07:25;986.8;;;24.1;29.3
62980;BME280;49075;53.988;27.678;2023-07-09T15:12:25;986.9;;;24.2;28.8
62980;BME280;49075;53.988;27.678;2023-07-09T15:17:23;986.8;;;24.1;29.1
62980;BME280;49075;53.988;27.678;2023-07-09T15:22:14;986.9;;;24.1;29.2
62980;BME280;49075;53.988;27.678;2023-07-09T15:27:09;986.7;;;24.2;29.2
62980;BME280;49075;53.988;27.678;2023-07-09T15:32:37;986.8;;;23.9;29.2
62980;BME280;49075;53.988;27.678;2023-07-09T15:37:27;986.8;;;24;29.5
62980;BME280;49075;53.988;27.678;2023-07-09T15:42:27;986.8;;;24;29.9
62980;BME280;49075;53.988;27.678;2023-07-09T15:47:15;986.8;;;24;29.8
62980;BME280;49075;53.988;27.678;2023-07-09T15:52:09;986.9;;;23.9;30
62980;BME280;49075;53.988;27.678;2023-07-09T15:57:23;986.9;;;24;29.9
62980;BME280;49075;53.988;27.678;2023-07-09T16:02:21;986.9;;;23.9;30
62980;BME280;49075;53.988;27.678;2023-07-09T16:07:09;986.9;;;23.8;30.7
62980;BME280;49075;53.988;27.678;2023-07-09T16:12:33;986.9;;;23.7;30.8
62980;BME280;49075;53.988;27.678;2023-07-09T16:17:41;986.8;;;23.8;30.9
62980;BME280;49075;53.988;27.678;2023-07-09T16:23:03;986.8;;;23.7;30.9
62980;BME280;49075;53.988;27.678;2023-07-09T16:27:29;986.8;;;23.6;30.6
62980;BME280;49075;53.988;27.678;2023-07-09T16:32:09;986.7;;;23.6;30.7
62980;BME280;49075;53.988;27.678;2023-07-09T16:37:39;986.8;;;23.4;31.1
62980;BME280;49075;53.988;27.678;2023-07-09T16:42:27;986.8;;;23.4;31.1
62980;BME280;49075;53.988;27.678;2023-07-09T16:47:33;986.8;;;23.1;31.7
62980;BME280;49075;53.988;27.678;2023-07-09T16:52:29;986.8;;;23.1;31.7
62980;BME280;49075;53.988;27.678;2023-07-09T16:57:11;986.8;;;22.9;31.8
62980;BME280;49075;53.988;27.678;2023-07-09T17:02:33;986.9;;;22.7;32.3
62980;BME280;49075;53.988;27.678;2023-07-09T17:08:05;986.9;;;22.5;32.7
62980;BME280;49075;53.988;27.678;2023-07-09T17:12:23;986.9;;;22.4;33
62980;BME280;49075;53.988;27.678;2023-07-09T17:17:41;987;;;22.1;35
62980;BME280;49075;53.988;27.678;2023-07-09T17:22:41;987.1;;;21.7;37.5
62980;BME280;49075;53.988;27.678;2023-07-09T17:27:31;987.3;;;21.5;38.2
62980;BME280;49075;53.988;27.678;2023-07-09T17:32:41;987.4;;;21;40.7
62980;BME280;49075;53.988;27.678;2023-07-09T17:37:09;987.4;;;20.7;41.1
62980;BME280;49075;53.988;27.678;2023-07-09T17:42:41;987.5;;;20.4;42.3
62980;BME280;49075;53.988;27.678;2023-07-09T17:47:23;987.5;;;20.2;42.3
62980;BME280;49075;53.988;27.678;2023-07-09T17:52:23;987.5;;;19.9;43.5
62980;BME280;49075;53.988;27.678;2023-07-09T17:57:10;987.4;;;19.7;43.8
62980;BME280;49075;53.988;27.678;2023-07-09T18:02:24;987.4;;;19.6;44.5
62980;BME280;49075;53.988;27.678;2023-07-09T18:07:30;987.4;;;19.6;44.6
62980;BME280;49075;53.988;27.678;2023-07-09T18:12:33;987.4;;;19.5;45.1
62980;BME280;49075;53.988;27.678;2023-07-09T18:17:41;987.3;;;19.4;45.4
62980;BME280;49075;53.988;27.678;2023-07-09T18:22:29;987.3;;;19.3;46.1
62980;BME280;49075;53.988;27.678;2023-07-09T18:27:42;987.3;;;19.4;46.1
62980;BME280;49075;53.988;27.678;2023-07-09T18:32:42;987.3;;;19.3;46.1
62980;BME280;49075;53.988;27.678;2023-07-09T18:37:23;987.3;;;19.2;46.6
62980;BME280;49075;53.988;27.678;2023-07-09T18:42:11;987.3;;;19.2;46.7
62980;BME280;49075;53.988;27.678;2023-07-09T18:47:09;987.3;;;19;47.6
62980;BME280;49075;53.988;27.678;2023-07-09T18:52:41;987.3;;;18.9;47.8
62980;BME280;49075;53.988;27.678;2023-07-09T18:57:41;987.3;;;18.8;48.7
62980;BME280;49075;53.988;27.678;2023-07-09T19:02:16;987.3;;;18.5;49.1
62980;BME280;49075;53.988;27.678;2023-07-09T19:07:23;987.3;;;18.4;49.9
62980;BME280;49075;53.988;27.678;2023-07-09T19:12:27;987.2;;;18.3;50
62980;BME280;49075;53.988;27.678;2023-07-09T19:17:16;987.3;;;18.2;50.7
62980;BME280;49075;53.988;27.678;2023-07-09T19:22:45;987.3;;;18.1;50.8
62980;BME280;49075;53.988;27.678;2023-07-09T19:27:35;987.4;;;17.9;51.6
62980;BME280;49075;53.988;27.678;2023-07-09T19:32:12;987.4;;;17.7;52
62980;BME280;49075;53.988;27.678;2023-07-09T19:37:37;987.4;;;17.5;53
62980;BME280;49075;53.988;27.678;2023-07-09T19:42:31;987.5;;;17.4;53.2
62980;BME280;49075;53.988;27.678;2023-07-09T19:47:16;987.4;;;17.3;54.3
62980;BME280;49075;53.988;27.678;2023-07-09T19:52:11;987.4;;;17.2;54.2
62980;BME280;49075;53.988;27.678;2023-07-09T19:57:09;987.5;;;17;55.1
62980;BME280;49075;53.988;27.678;2023-07-09T20:02:16;987.4;;;16.9;55.2
62980;BME280;49075;53.988;27.678;2023-07-09T20:07:10;987.4;;;16.7;56.5
62980;BME280;49075;53.988;27.678;2023-07-09T20:13:07;987.4;;;16.7;56.3
62980;BME280;49075;53.988;27.678;2023-07-09T20:17:09;987.4;;;16.7;57.2
62980;BME280;49075;53.988;27.678;2023-07-09T20:22:49;987.4;;;16.7;57.1
62980;BME280;49075;53.988;27.678;2023-07-09T20:27:21;987.4;;;16.6;57.4
62980;BME280;49075;53.988;27.678;2023-07-09T20:32:23;987.4;;;16.6;57.9
62980;BME280;49075;53.988;27.678;2023-07-09T20:37:09;987.4;;;16.5;58.3
62980;BME280;49075;53.988;27.678;2023-07-09T20:42:10;987.4;;;16.4;58.4
62980;BME280;49075;53.988;27.678;2023-07-09T20:47:23;987.3;;;16.3;59.5
62980;BME280;49075;53.988;27.678;2023-07-09T20:52:09;987.3;;;16.2;59.5
62980;BME280;49075;53.988;27.678;2023-07-09T20:57:30;987.3;;;16.2;60.1
62980;BME280;49075;53.988;27.678;2023-07-09T21:02:14;987.3;;;16.2;59.7
62980;BME280;49075;53.988;27.678;2023-07-09T21:07:42;987.3;;;16.1;60.8
62980;BME280;49075;53.988;27.678;2023-07-09T21:12:10;987.2;;;16.1;60.2
62980;BME280;49075;53.988;27.678;2023-07-09T21:17:25;987.2;;;15.9;61
62980;BME280;49075;53.988;27.678;2023-07-09T21:22:10;987.2;;;15.9;61.1
62980;BME280;49075;53.988;27.678;2023-07-09T21:27:15;987.2;;;15.9;61.6
62980;BME280;49075;53.988;27.678;2023-07-09T21:32:11;987.2;;;15.8;61.4
62980;BME280;49075;53.988;27.678;2023-07-09T21:37:12;987.2;;;15.7;62.2
62980;BME280;49075;53.988;27.678;2023-07-09T21:42:09;987.2;;;15.5;62.2
62980;BME280;49075;53.988;27.678;2023-07-09T21:47:11;987.1;;;15.4;63
62980;BME280;49075;53.988;27.678;2023-07-09T21:52:49;987.1;;;15.4;62.6
62980;BME280;49075;53.988;27.678;2023-07-09T21:57:27;987.1;;;15.5;63.2
62980;BME280;49075;53.988;27.678;2023-07-09T22:02:33;987.1;;;15.4;62.9
62980;BME280;49075;53.988;27.678;2023-07-09T22:07:10;987.2;;;15.2;63.6
62980;BME280;49075;53.988;27.678;2023-07-09T22:12:23;987.1;;;15.3;63.5
62980;BME280;49075;53.988;27.678;2023-07-09T22:17:44;987.1;;;15.3;63.1
62980;BME280;49075;53.988;27.678;2023-07-09T22:22:28;987;;;15.2;63.8
62980;BME280;49075;53.988;27.678;2023-07-09T22:27:37;987.1;;;15.1;63.9
62980;BME280;49075;53.988;27.678;2023-07-09T22:32:24;987;;;15;64.4
62980;BME280;49075;53.988;27.678;2023-07-09T22:37:27;987;;;15.1;64.2
62980;BME280;49075;53.988;27.678;2023-07-09T22:42:09;987.1;;;15.1;64.5
62980;BME280;49075;53.988;27.678;2023-07-09T22:47:11;987.1;;;15.1;64.5
62980;BME280;49075;53.988;27.678;2023-07-09T22:52:10;987.1;;;15.1;64.9
62980;BME280;49075;53.988;27.678;2023-07-09T22:57:09;987.1;;;15.1;64.2
62980;BME280;49075;53.988;27.678;2023-07-09T23:02:23;987.1;;;15.1;64.7
62980;BME280;49075;53.988;27.678;2023-07-09T23:07:10;987;;;15.1;64.5
62980;BME280;49075;53.988;27.678;2023-07-09T23:12:23;987;;;15.1;64.7
62980;BME280;49075;53.988;27.678;2023-07-09T23:17:10;987;;;15.2;64.3
62980;BME280;49075;53.988;27.678;2023-07-09T23:22:23;987;;;15.1;64.8
62980;BME280;49075;53.988;27.678;2023-07-09T23:27:12;987;;;15.1;64.6
62980;BME280;49075;53.988;27.678;2023-07-09T23:32:11;987;;;15;65.3
62980;BME280;49075;53.988;27.678;2023-07-09T23:37:15;987;;;15;64.9
62980;BME280;49075;53.988;27.678;2023-07-09T23:42:44;987.1;;;15.1;65.3
62980;BME280;49075;53.988;27.678;2023-07-09T23:47:10;987.1;;;14.9;65.5
62980;BME280;49075;53.988;27.678;2023-07-09T23:52:10;987.1;;;14.9;65.9
62980;BME280;49075;53.988;27.678;2023-07-09T23:57:28;987.1;;;15;65.4
